Salt Lake City, Utah
Traffic Map
Current Weather Conditions
Salt Lake City, Utah
Clear
Clear

Feels Like: 3°
Wind Chill: Ceiling: Unl
Heat Index: Visibility: 10mi
Dew Point: -3° Wind: 15mph
Humidity: 48% Direction: 140° (SE)
Pressure: 30.29in Gusts: 0mph
Raw Report DataKSLC 271153Z 14013KT 10SM CLR 07/M03 A3029 RMK AO2 SLP240 T00721033 10078 20061 58009
Traffic Incident Summary
Active as of:
Severity:
Category:
InformationThere was an issue retrieving the traffic information for this location. Please try a different location or try again shortly.
Advertisements
Track Severe Weather on mobile